Time;durP1;ratioP1;P1;durP2;ratioP2;P2;SDS_P1;SDS_P2;PMS_P1;PMS_P2;Temp;Humidity;BMP_temperature;BMP_pressure;BME280_temperature;BME280_humidity;BME280_pressure;Samples;Min_cycle;Max_cycle;Signal;HPM_P1;HPM_P2
2023/11/14 00:01:48;;;;;;;1.40;0.53;;;13.90;99.90;;;;;;4992302;28;20663;-62
2023/11/14 00:04:14;;;;;;;0.30;0.30;;;14.00;99.90;;;;;;4992442;28;20180;-62
2023/11/14 00:06:40;;;;;;;0.40;0.40;;;14.10;99.90;;;;;;4975050;28;20194;-62
2023/11/14 00:09:05;;;;;;;0.40;0.40;;;14.10;99.90;;;;;;4992289;28;20645;-62
2023/11/14 00:11:34;;;;;;;0.60;0.53;;;14.10;99.90;;;;;;4988659;28;20195;-62
2023/11/14 00:14:03;;;;;;;0.30;0.30;;;14.10;99.90;;;;;;4969046;28;20220;-62
2023/11/14 00:16:29;;;;;;;0.30;0.30;;;14.10;99.90;;;;;;4969011;28;20404;-62
2023/11/14 00:18:55;;;;;;;0.30;0.30;;;14.10;99.90;;;;;;4949533;28;20448;-62
2023/11/14 00:21:21;;;;;;;0.30;0.30;;;14.10;99.90;;;;;;4964586;28;20255;-62
2023/11/14 00:23:47;;;;;;;0.53;0.53;;;14.10;99.90;;;;;;4951070;28;20430;-62
2023/11/14 00:26:13;;;;;;;1.27;0.50;;;14.30;99.90;;;;;;4962469;28;20440;-62
2023/11/14 00:28:39;;;;;;;0.40;0.40;;;14.20;99.90;;;;;;4963875;28;20545;-62
2023/11/14 00:31:04;;;;;;;0.30;0.30;;;14.20;99.90;;;;;;4964005;28;20515;-62
2023/11/14 00:33:30;;;;;;;0.30;0.30;;;14.20;99.90;;;;;;4964128;28;20200;-63
2023/11/14 00:35:56;;;;;;;0.30;0.30;;;14.20;99.90;;;;;;4969897;28;20243;-62
2023/11/14 00:38:23;;;;;;;0.30;0.30;;;14.20;99.90;;;;;;4962733;28;20182;-62
2023/11/14 00:40:52;;;;;;;0.30;0.30;;;14.30;99.90;;;;;;4961538;28;20424;-62
2023/11/14 00:43:18;;;;;;;0.30;0.30;;;14.20;99.90;;;;;;4969460;28;20539;-62
2023/11/14 00:45:45;;;;;;;0.30;0.30;;;14.20;99.90;;;;;;4972288;28;20898;-62
2023/11/14 00:48:11;;;;;;;0.30;0.30;;;14.20;99.90;;;;;;4972522;28;20449;-62
2023/11/14 00:50:36;;;;;;;0.33;0.33;;;14.10;99.90;;;;;;4968723;28;20463;-62
2023/11/14 00:53:03;;;;;;;0.30;0.30;;;14.20;99.90;;;;;;4961567;28;20229;-63
2023/11/14 00:55:29;;;;;;;3.50;0.60;;;14.10;99.90;;;;;;4961692;28;20261;-62
2023/11/14 00:57:56;;;;;;;0.30;0.30;;;14.00;99.90;;;;;;4958855;28;20538;-62
2023/11/14 01:00:22;;;;;;;0.30;0.30;;;14.00;99.90;;;;;;4956183;29;20592;-62
2023/11/14 01:02:50;;;;;;;0.40;0.40;;;14.10;99.90;;;;;;4955552;29;20411;-62
2023/11/14 01:05:15;;;;;;;0.30;0.30;;;14.10;99.90;;;;;;4939981;29;20545;-62
2023/11/14 01:07:41;;;;;;;0.30;0.30;;;14.20;99.90;;;;;;4956898;29;20748;-62
2023/11/14 01:10:07;;;;;;;0.30;0.30;;;14.20;99.90;;;;;;4956747;29;20634;-62
2023/11/14 01:12:35;;;;;;;0.73;0.73;;;14.10;99.90;;;;;;4939292;29;20575;-62
2023/11/14 01:15:03;;;;;;;0.30;0.30;;;14.10;99.90;;;;;;4956772;29;20529;-62
2023/11/14 01:17:28;;;;;;;0.30;0.30;;;14.10;99.90;;;;;;4956731;29;20441;-62
2023/11/14 01:19:54;;;;;;;0.30;0.30;;;14.00;99.90;;;;;;4956757;29;20902;-61
2023/11/14 01:22:20;;;;;;;0.30;0.30;;;14.00;99.90;;;;;;4956411;29;20174;-62
2023/11/14 01:24:45;;;;;;;0.30;0.30;;;14.00;99.90;;;;;;4956915;29;20174;-62
2023/11/14 01:27:11;;;;;;;0.30;0.30;;;14.10;99.90;;;;;;4956582;29;20182;-62
2023/11/14 01:29:38;;;;;;;0.40;0.40;;;14.20;99.90;;;;;;4956557;29;20197;-62
2023/11/14 01:32:05;;;;;;;0.40;0.40;;;14.20;99.90;;;;;;4956045;29;20193;-62
2023/11/14 01:34:30;;;;;;;0.40;0.40;;;14.30;99.90;;;;;;4956531;29;21000;-62
2023/11/14 01:36:57;;;;;;;0.30;0.30;;;14.30;99.90;;;;;;4956343;29;20489;-61
2023/11/14 01:39:29;;;;;;;0.30;0.30;;;14.00;99.90;;;;;;4956653;29;20272;-62
2023/11/14 01:41:54;;;;;;;0.30;0.30;;;14.00;99.90;;;;;;4956178;29;20409;-62
2023/11/14 01:44:20;;;;;;;0.30;0.30;;;13.90;99.90;;;;;;4956223;29;20814;-62
2023/11/14 01:46:46;;;;;;;0.40;0.40;;;13.80;99.90;;;;;;4956214;29;20174;-62
2023/11/14 01:49:13;;;;;;;0.40;0.40;;;13.70;99.90;;;;;;4956304;29;20557;-61
2023/11/14 01:51:40;;;;;;;0.40;0.30;;;13.70;99.90;;;;;;4956079;29;20975;-62
2023/11/14 01:54:06;;;;;;;0.30;0.30;;;13.80;99.90;;;;;;4938804;29;20421;-62
2023/11/14 01:56:33;;;;;;;0.30;0.30;;;13.90;99.90;;;;;;4956103;29;20711;-62
2023/11/14 01:58:59;;;;;;;0.30;0.30;;;14.00;99.90;;;;;;4958090;28;20460;-62
2023/11/14 02:01:25;;;;;;;0.30;0.30;;;14.00;99.90;;;;;;4974728;28;20422;-62
2023/11/14 02:03:51;;;;;;;0.30;0.30;;;13.90;99.90;;;;;;4974990;28;20424;-61
2023/11/14 02:06:17;;;;;;;0.30;0.30;;;13.70;99.90;;;;;;4974809;28;20567;-62
2023/11/14 02:08:43;;;;;;;0.30;0.30;;;13.70;99.90;;;;;;4974451;28;20180;-62
2023/11/14 02:11:10;;;;;;;0.30;0.30;;;13.60;99.90;;;;;;4975044;28;20582;-61
2023/11/14 02:13:36;;;;;;;0.30;0.30;;;13.50;99.90;;;;;;4957630;28;20464;-62
2023/11/14 02:16:02;;;;;;;0.30;0.30;;;13.40;99.90;;;;;;4975249;28;20904;-62
2023/11/14 02:18:28;;;;;;;0.40;0.40;;;13.40;99.90;;;;;;4974382;28;20496;-62
2023/11/14 02:20:53;;;;;;;0.30;0.30;;;13.40;99.90;;;;;;4975005;28;20430;-62
2023/11/14 02:23:20;;;;;;;0.40;0.40;;;13.40;99.90;;;;;;4974779;28;20173;-62
2023/11/14 02:25:46;;;;;;;0.30;0.30;;;13.40;99.90;;;;;;4974766;28;20748;-62
2023/11/14 02:28:13;;;;;;;0.30;0.30;;;13.10;99.90;;;;;;4974702;28;20416;-62
2023/11/14 02:30:39;;;;;;;0.30;0.30;;;12.90;99.90;;;;;;4974759;28;20501;-62
2023/11/14 02:33:06;;;;;;;0.30;0.30;;;12.80;99.90;;;;;;4974466;28;20499;-62
2023/11/14 02:35:32;;;;;;;0.30;0.30;;;12.80;99.90;;;;;;4974781;28;20494;-61
2023/11/14 02:37:58;;;;;;;0.30;0.30;;;12.90;99.90;;;;;;4974719;28;20411;-61
2023/11/14 02:40:24;;;;;;;0.30;0.30;;;12.90;99.90;;;;;;4974531;28;20968;-62
2023/11/14 02:42:53;;;;;;;0.30;0.30;;;12.80;99.90;;;;;;4974274;28;20231;-62
2023/11/14 02:45:26;;;;;;;0.63;0.40;;;12.80;99.90;;;;;;4974459;28;20444;-61
2023/11/14 02:47:53;;;;;;;0.30;0.30;;;12.80;99.90;;;;;;4974473;28;20487;-62
2023/11/14 02:50:51;;;;;;;0.30;0.30;;;12.70;99.90;;;;;;4973973;28;20444;-62
2023/11/14 02:53:19;;;;;;;0.30;0.30;;;12.50;99.90;;;;;;4973940;28;20518;-62
2023/11/14 02:55:45;;;;;;;0.30;0.30;;;12.30;99.90;;;;;;4974486;28;20415;-62
2023/11/14 02:58:12;;;;;;;0.40;0.40;;;12.30;99.90;;;;;;4974370;28;20518;-61
2023/11/14 03:00:41;;;;;;;0.30;0.30;;;12.10;99.90;;;;;;4974110;28;20803;-61
2023/11/14 03:03:07;;;;;;;0.30;0.30;;;12.20;99.90;;;;;;4973697;28;20436;-62
2023/11/14 03:05:33;;;;;;;0.30;0.30;;;12.30;99.90;;;;;;4974068;28;20665;-61
2023/11/14 03:07:58;;;;;;;0.30;0.30;;;12.00;99.90;;;;;;4956731;28;21056;-62
2023/11/14 03:10:24;;;;;;;0.30;0.30;;;12.10;99.90;;;;;;5032831;23;20241;-61
2023/11/14 03:12:50;;;;;;;0.30;0.30;;;12.10;99.90;;;;;;4992441;28;20265;-61
2023/11/14 03:15:16;;;;;;;0.30;0.30;;;12.10;99.90;;;;;;4993264;28;20498;-61
2023/11/14 03:17:42;;;;;;;0.30;0.30;;;12.00;99.90;;;;;;4993235;28;20176;-61
2023/11/14 03:20:08;;;;;;;0.60;0.40;;;11.90;99.90;;;;;;4975059;28;20470;-61
2023/11/14 03:22:34;;;;;;;0.33;0.33;;;11.70;99.90;;;;;;4992726;28;20184;-61
2023/11/14 03:25:00;;;;;;;0.30;0.30;;;11.80;99.90;;;;;;4993045;28;20470;-61
2023/11/14 03:27:25;;;;;;;0.30;0.30;;;11.80;99.90;;;;;;4992939;28;20913;-61
2023/11/14 03:29:51;;;;;;;0.40;0.30;;;11.70;99.90;;;;;;4991463;28;20223;-61
2023/11/14 03:32:17;;;;;;;0.30;0.30;;;11.70;99.90;;;;;;4992605;28;20207;-61
2023/11/14 03:34:43;;;;;;;0.30;0.30;;;11.80;99.90;;;;;;4993234;28;20180;-61
2023/11/14 03:37:09;;;;;;;0.50;0.50;;;11.80;99.90;;;;;;4992836;28;20161;-61
2023/11/14 03:39:35;;;;;;;0.30;0.30;;;11.80;99.90;;;;;;4992378;28;20510;-61
2023/11/14 03:42:00;;;;;;;0.40;0.40;;;11.80;99.90;;;;;;4992452;28;20222;-61
2023/11/14 03:44:26;;;;;;;0.43;0.40;;;11.80;99.90;;;;;;4992703;28;20172;-61
2023/11/14 03:46:52;;;;;;;0.40;0.40;;;11.80;99.90;;;;;;4992632;28;20179;-61
2023/11/14 03:49:17;;;;;;;0.60;0.60;;;11.60;99.90;;;;;;4992725;28;20184;-61
2023/11/14 03:51:43;;;;;;;0.30;0.30;;;11.40;99.90;;;;;;4992433;28;20665;-60
2023/11/14 03:54:09;;;;;;;0.40;0.40;;;11.40;99.90;;;;;;4992345;28;20546;-61
2023/11/14 03:56:34;;;;;;;0.30;0.30;;;11.40;99.90;;;;;;4992508;28;20251;-61
2023/11/14 03:59:00;;;;;;;0.60;0.50;;;11.40;99.90;;;;;;4992474;28;20187;-61
2023/11/14 04:01:26;;;;;;;0.30;0.30;;;11.00;99.90;;;;;;4992345;28;20188;-61
2023/11/14 04:03:51;;;;;;;0.40;0.40;;;10.90;99.90;;;;;;4971409;28;20173;-61
2023/11/14 04:06:17;;;;;;;0.30;0.30;;;10.60;99.90;;;;;;4985166;28;20234;-60
2023/11/14 04:08:42;;;;;;;0.30;0.30;;;10.80;99.90;;;;;;4992381;28;20543;-60
2023/11/14 04:11:08;;;;;;;0.53;0.50;;;10.90;99.90;;;;;;4992071;28;20207;-60
2023/11/14 04:13:36;;;;;;;0.30;0.30;;;11.00;99.90;;;;;;4974523;28;20218;-60
2023/11/14 04:16:02;;;;;;;0.70;0.40;;;11.00;99.90;;;;;;4991994;28;20622;-61
2023/11/14 04:18:28;;;;;;;0.30;0.30;;;11.10;99.90;;;;;;4992198;28;20434;-61
2023/11/14 04:20:55;;;;;;;0.40;0.40;;;11.10;99.90;;;;;;4992164;28;20283;-61
2023/11/14 04:23:20;;;;;;;0.60;0.40;;;11.10;99.90;;;;;;4991890;28;20207;-61
2023/11/14 04:25:46;;;;;;;0.30;0.30;;;11.00;99.90;;;;;;4992103;28;20642;-61
2023/11/14 04:28:12;;;;;;;0.60;0.50;;;11.10;99.90;;;;;;4992138;28;20403;-61
2023/11/14 04:30:39;;;;;;;0.30;0.30;;;11.10;99.90;;;;;;4992004;28;20518;-61
2023/11/14 04:33:04;;;;;;;0.40;0.40;;;10.90;99.90;;;;;;4995004;28;20222;-61
2023/11/14 04:35:30;;;;;;;0.30;0.30;;;10.90;99.90;;;;;;4978756;28;20812;-61
2023/11/14 04:37:56;;;;;;;0.30;0.30;;;10.90;99.90;;;;;;4996063;28;20190;-61
2023/11/14 04:40:24;;;;;;;0.50;0.50;;;10.70;99.90;;;;;;4995372;28;20258;-61
2023/11/14 04:42:52;;;;;;;0.30;0.30;;;10.60;99.90;;;;;;4995892;28;20179;-61
2023/11/14 04:45:17;;;;;;;0.40;0.40;;;10.70;99.90;;;;;;4978702;28;20794;-61
2023/11/14 04:47:44;;;;;;;0.30;0.30;;;10.70;99.90;;;;;;4995930;28;20175;-61
2023/11/14 04:50:10;;;;;;;0.30;0.30;;;10.40;99.90;;;;;;4995926;28;20191;-60
2023/11/14 04:52:36;;;;;;;0.60;0.60;;;10.20;99.90;;;;;;4995410;28;20208;-60
2023/11/14 04:55:04;;;;;;;0.30;0.30;;;9.90;99.90;;;;;;4996032;28;20445;-61
2023/11/14 04:57:30;;;;;;;0.32;0.32;;;9.70;99.90;;;;;;4995946;28;20558;-60
2023/11/14 04:59:55;;;;;;;0.40;0.40;;;9.40;99.90;;;;;;4995653;28;20188;-60
2023/11/14 05:02:23;;;;;;;0.30;0.30;;;9.40;99.90;;;;;;4995428;28;20419;-60
2023/11/14 05:04:49;;;;;;;0.30;0.30;;;9.50;99.90;;;;;;4995639;28;20168;-60
2023/11/14 05:07:15;;;;;;;1.00;0.90;;;9.50;99.90;;;;;;4995505;28;20198;-61
2023/11/14 05:09:41;;;;;;;0.40;0.40;;;9.60;99.90;;;;;;4978035;28;20841;-61
2023/11/14 05:12:07;;;;;;;0.50;0.50;;;9.50;99.90;;;;;;4995192;28;20541;-61
2023/11/14 05:14:32;;;;;;;0.40;0.40;;;9.60;99.90;;;;;;4978231;28;20203;-61
2023/11/14 05:16:58;;;;;;;0.30;0.30;;;9.50;99.90;;;;;;4978218;28;20426;-61
2023/11/14 05:19:24;;;;;;;0.40;0.40;;;9.30;99.90;;;;;;4995372;28;20595;-61
2023/11/14 05:21:50;;;;;;;0.30;0.30;;;9.30;99.90;;;;;;4994954;28;20196;-61
2023/11/14 05:24:17;;;;;;;0.50;0.50;;;9.40;99.90;;;;;;4995252;28;20184;-61
2023/11/14 05:26:44;;;;;;;0.43;0.43;;;9.40;99.90;;;;;;4995338;28;20631;-61
2023/11/14 05:29:10;;;;;;;3.40;0.55;;;9.30;99.90;;;;;;4995198;28;20634;-60
2023/11/14 05:31:36;;;;;;;0.40;0.40;;;9.30;99.90;;;;;;4995079;28;20631;-61
2023/11/14 05:34:03;;;;;;;0.40;0.40;;;9.40;99.90;;;;;;4994878;28;20662;-61
2023/11/14 05:36:28;;;;;;;0.43;0.43;;;9.50;99.90;;;;;;4994981;28;20183;-60
2023/11/14 05:38:54;;;;;;;0.60;0.60;;;9.60;99.90;;;;;;4994611;28;20168;-60
2023/11/14 05:41:20;;;;;;;0.30;0.30;;;9.70;99.90;;;;;;4995297;28;20586;-60
2023/11/14 05:43:46;;;;;;;0.50;0.50;;;9.80;99.90;;;;;;4994084;28;20172;-60
2023/11/14 05:46:12;;;;;;;0.80;0.53;;;9.80;99.90;;;;;;4995162;28;20235;-60
2023/11/14 05:48:38;;;;;;;0.60;0.60;;;9.80;99.90;;;;;;4994884;28;20499;-59
2023/11/14 05:51:04;;;;;;;0.40;0.40;;;9.70;99.90;;;;;;4994190;28;20693;-59
2023/11/14 05:53:30;;;;;;;5.28;1.25;;;9.70;99.90;;;;;;4994485;28;20737;-60
2023/11/14 05:55:57;;;;;;;0.50;0.50;;;9.50;99.90;;;;;;4994628;28;20646;-60
2023/11/14 05:58:24;;;;;;;2.05;1.50;;;9.50;99.90;;;;;;4994956;28;20180;-60
2023/11/14 06:00:49;;;;;;;1.05;1.05;;;9.60;99.90;;;;;;4993118;28;20200;-61
2023/11/14 06:03:16;;;;;;;0.40;0.40;;;9.70;99.90;;;;;;4993634;28;20187;-61
2023/11/14 06:05:42;;;;;;;1.65;0.60;;;9.70;99.90;;;;;;4992513;28;20195;-61
2023/11/14 06:08:08;;;;;;;0.30;0.30;;;9.80;99.90;;;;;;4994470;28;20172;-60
2023/11/14 06:10:34;;;;;;;0.40;0.40;;;9.70;99.90;;;;;;4993041;28;20261;-60
2023/11/14 06:13:00;;;;;;;0.70;0.70;;;9.60;99.90;;;;;;4992859;28;20208;-60
2023/11/14 06:15:26;;;;;;;0.93;0.70;;;9.50;99.90;;;;;;4994239;28;20439;-60
2023/11/14 06:17:53;;;;;;;0.50;0.50;;;9.50;99.90;;;;;;4994139;28;20191;-60
2023/11/14 06:20:19;;;;;;;0.50;0.50;;;9.50;99.90;;;;;;4994172;28;20203;-60
2023/11/14 06:22:45;;;;;;;1.53;0.60;;;9.60;99.90;;;;;;4993920;28;20168;-61
2023/11/14 06:25:11;;;;;;;0.45;0.45;;;9.50;99.90;;;;;;4994180;28;20415;-60
2023/11/14 06:27:36;;;;;;;0.30;0.30;;;9.50;99.90;;;;;;4993904;28;20214;-60
2023/11/14 06:30:02;;;;;;;2.10;1.90;;;9.50;99.90;;;;;;4993989;28;20192;-61
2023/11/14 06:32:28;;;;;;;0.30;0.30;;;9.60;99.90;;;;;;4993280;28;20208;-60
2023/11/14 06:34:54;;;;;;;0.60;0.40;;;9.60;99.90;;;;;;4993895;28;20188;-60
2023/11/14 06:37:20;;;;;;;6.33;0.77;;;9.70;99.90;;;;;;4993887;28;20180;-60
2023/11/14 06:39:47;;;;;;;0.40;0.40;;;9.80;99.90;;;;;;4993779;28;20184;-60
2023/11/14 06:42:12;;;;;;;0.40;0.40;;;9.90;99.90;;;;;;4993603;28;20419;-60
2023/11/14 06:44:41;;;;;;;0.40;0.40;;;9.90;99.90;;;;;;4993730;28;20230;-61
2023/11/14 06:47:07;;;;;;;0.50;0.50;;;9.90;99.90;;;;;;4993574;28;20649;-60
2023/11/14 06:49:34;;;;;;;1.23;1.13;;;9.90;99.90;;;;;;4993598;28;20275;-60
2023/11/14 06:51:59;;;;;;;0.30;0.30;;;9.80;99.90;;;;;;4993203;28;20255;-60
2023/11/14 06:54:25;;;;;;;0.40;0.40;;;9.80;99.90;;;;;;4993268;28;20593;-60
2023/11/14 06:56:51;;;;;;;0.30;0.30;;;9.80;99.90;;;;;;4993516;28;20168;-62
2023/11/14 06:59:16;;;;;;;0.37;0.37;;;9.80;99.90;;;;;;4993353;28;20179;-61
2023/11/14 07:01:42;;;;;;;0.80;0.80;;;9.80;99.90;;;;;;4986069;28;20199;-62
2023/11/14 07:04:10;;;;;;;0.40;0.40;;;9.80;99.90;;;;;;5008217;28;20183;-61
2023/11/14 07:06:35;;;;;;;0.30;0.30;;;9.80;99.90;;;;;;4986106;28;20172;-62
2023/11/14 07:09:01;;;;;;;0.30;0.30;;;9.90;99.90;;;;;;4992897;28;20183;-62
2023/11/14 07:11:28;;;;;;;0.37;0.37;;;9.80;99.90;;;;;;4993147;28;20215;-61
2023/11/14 07:13:53;;;;;;;0.70;0.60;;;9.90;99.90;;;;;;4992863;28;20231;-61
2023/11/14 07:16:20;;;;;;;0.40;0.40;;;9.80;99.90;;;;;;4993004;28;20184;-61
2023/11/14 07:18:46;;;;;;;0.60;0.60;;;9.80;99.90;;;;;;4993077;28;20175;-61
2023/11/14 07:21:13;;;;;;;0.40;0.40;;;9.80;99.90;;;;;;4992989;28;20192;-60
2023/11/14 07:23:39;;;;;;;1.05;0.75;;;9.80;99.90;;;;;;4992703;28;20206;-61
2023/11/14 07:26:06;;;;;;;0.40;0.40;;;9.90;99.90;;;;;;4992939;28;20204;-61
2023/11/14 07:28:34;;;;;;;0.75;0.75;;;9.90;99.90;;;;;;4975785;28;20571;-62
2023/11/14 07:30:59;;;;;;;0.52;0.52;;;10.00;99.90;;;;;;4992683;28;20198;-61
2023/11/14 07:33:26;;;;;;;0.40;0.40;;;10.00;99.90;;;;;;4992511;28;20295;-61
2023/11/14 07:35:51;;;;;;;0.40;0.40;;;10.00;99.90;;;;;;4992708;28;20176;-61
2023/11/14 07:38:17;;;;;;;0.40;0.40;;;10.00;99.90;;;;;;4993051;28;20183;-61
2023/11/14 07:40:42;;;;;;;0.50;0.50;;;10.10;99.90;;;;;;4992661;28;20227;-61
2023/11/14 07:43:09;;;;;;;0.50;0.50;;;10.10;99.90;;;;;;4992375;28;20179;-62
2023/11/14 07:45:35;;;;;;;0.50;0.50;;;10.20;99.90;;;;;;4992512;28;20672;-62
2023/11/14 07:48:02;;;;;;;0.40;0.40;;;10.30;99.90;;;;;;4992720;28;20218;-61
2023/11/14 07:50:28;;;;;;;0.52;0.40;;;10.10;99.90;;;;;;4992550;28;20450;-61
2023/11/14 07:52:54;;;;;;;0.40;0.40;;;10.00;99.90;;;;;;4992059;28;20704;-61
2023/11/14 07:55:20;;;;;;;2.57;0.83;;;9.90;99.90;;;;;;4992483;28;20420;-61
2023/11/14 07:57:45;;;;;;;0.40;0.40;;;9.90;99.90;;;;;;4992401;28;20192;-61
2023/11/14 08:00:13;;;;;;;0.30;0.30;;;10.20;99.90;;;;;;4992301;28;20987;-61
2023/11/14 08:02:39;;;;;;;0.40;0.40;;;10.20;99.90;;;;;;4987547;28;20187;-61
2023/11/14 08:05:05;;;;;;;0.40;0.40;;;10.30;99.90;;;;;;4989213;28;20176;-61
2023/11/14 08:07:31;;;;;;;0.40;0.40;;;10.40;99.90;;;;;;4991312;28;20251;-60
2023/11/14 08:09:56;;;;;;;0.70;0.60;;;10.60;99.90;;;;;;4990871;28;20216;-61
2023/11/14 08:12:22;;;;;;;0.50;0.50;;;10.70;99.90;;;;;;4991762;28;20250;-61
2023/11/14 08:14:49;;;;;;;0.30;0.30;;;10.70;99.90;;;;;;4992052;28;20168;-60
2023/11/14 08:17:17;;;;;;;0.50;0.50;;;10.70;99.90;;;;;;4992759;28;20542;-60
2023/11/14 08:19:45;;;;;;;0.80;0.80;;;10.80;99.90;;;;;;4991914;28;20183;-61
2023/11/14 08:22:11;;;;;;;0.40;0.40;;;10.90;99.90;;;;;;4991685;28;20180;-61
2023/11/14 08:24:38;;;;;;;0.50;0.50;;;11.00;99.90;;;;;;4992095;28;20407;-61
2023/11/14 08:27:07;;;;;;;0.50;0.50;;;11.00;99.90;;;;;;4992099;28;20199;-61
2023/11/14 08:29:36;;;;;;;2.25;0.85;;;11.10;99.90;;;;;;4991975;28;20188;-61
2023/11/14 08:32:03;;;;;;;0.80;0.80;;;11.10;99.90;;;;;;4991684;28;20199;-61
2023/11/14 08:34:29;;;;;;;0.60;0.60;;;11.10;99.90;;;;;;4991025;28;20646;-61
2023/11/14 08:36:55;;;;;;;0.30;0.30;;;11.00;99.90;;;;;;4992070;28;20203;-61
2023/11/14 08:39:20;;;;;;;0.30;0.30;;;11.00;99.90;;;;;;4991980;28;20271;-61
2023/11/14 08:41:47;;;;;;;0.87;0.43;;;10.90;99.90;;;;;;4991752;28;20435;-61
2023/11/14 08:44:13;;;;;;;0.60;0.60;;;10.90;99.90;;;;;;4991841;28;20172;-61
2023/11/14 08:46:39;;;;;;;0.40;0.40;;;10.90;99.90;;;;;;4991908;28;20400;-61
2023/11/14 08:49:07;;;;;;;0.30;0.30;;;10.90;99.90;;;;;;4991948;28;20237;-61
2023/11/14 08:51:34;;;;;;;0.40;0.40;;;10.80;99.90;;;;;;4991845;28;20509;-60
2023/11/14 08:54:00;;;;;;;0.50;0.50;;;10.80;99.90;;;;;;4991958;28;20203;-61
2023/11/14 08:56:26;;;;;;;0.60;0.50;;;10.70;99.90;;;;;;4991723;28;20818;-60
2023/11/14 08:58:52;;;;;;;0.80;0.70;;;10.70;99.90;;;;;;4991874;28;20422;-61
2023/11/14 09:01:19;;;;;;;0.60;0.60;;;10.70;99.90;;;;;;4991729;28;20494;-61
2023/11/14 09:03:45;;;;;;;0.40;0.40;;;10.60;99.90;;;;;;4991453;28;20435;-60
2023/11/14 09:06:11;;;;;;;0.40;0.40;;;10.70;99.90;;;;;;4990469;28;20979;-60
2023/11/14 09:08:37;;;;;;;0.50;0.50;;;10.70;99.90;;;;;;4991644;28;20203;-60
2023/11/14 09:11:04;;;;;;;1.47;0.63;;;10.60;99.90;;;;;;4991449;28;20216;-59
2023/11/14 09:13:31;;;;;;;0.50;0.50;;;10.40;99.90;;;;;;4991398;28;20466;-59
2023/11/14 09:15:57;;;;;;;0.40;0.40;;;10.30;99.90;;;;;;4991751;28;20415;-59
2023/11/14 09:18:23;;;;;;;1.07;0.50;;;10.20;99.90;;;;;;4993446;28;20934;-59
2023/11/14 09:20:49;;;;;;;0.40;0.40;;;10.10;99.90;;;;;;4995166;28;20445;-59
2023/11/14 09:23:15;;;;;;;0.63;0.53;;;10.00;99.90;;;;;;4994948;28;20952;-58
2023/11/14 09:25:41;;;;;;;1.20;0.60;;;9.90;99.90;;;;;;4995177;28;20506;-59
2023/11/14 09:28:10;;;;;;;0.40;0.37;;;9.90;99.90;;;;;;4995164;28;20490;-59
2023/11/14 09:30:36;;;;;;;0.52;0.52;;;9.80;99.90;;;;;;4995268;28;20522;-59
2023/11/14 09:33:03;;;;;;;0.40;0.40;;;9.90;99.90;;;;;;4994939;28;20633;-58
2023/11/14 09:35:28;;;;;;;0.50;0.50;;;10.00;99.90;;;;;;4995073;28;20227;-59
2023/11/14 09:37:56;;;;;;;0.30;0.30;;;9.90;99.90;;;;;;4994952;28;20650;-59
2023/11/14 09:40:22;;;;;;;0.40;0.40;;;10.00;99.90;;;;;;4994843;28;20200;-59
2023/11/14 09:42:49;;;;;;;3.80;1.02;;;10.00;99.90;;;;;;4994594;28;20418;-59
2023/11/14 09:45:18;;;;;;;0.75;0.68;;;10.10;99.90;;;;;;4994972;28;20176;-58
2023/11/14 09:47:44;;;;;;;0.35;0.35;;;10.10;99.90;;;;;;4994755;28;20172;-58
2023/11/14 09:50:11;;;;;;;0.30;0.30;;;10.10;99.90;;;;;;4994709;28;20204;-59
2023/11/14 09:52:38;;;;;;;0.50;0.40;;;10.10;99.90;;;;;;4990863;28;20960;-58
2023/11/14 09:55:06;;;;;;;0.40;0.40;;;10.00;99.90;;;;;;4994826;28;20238;-58
2023/11/14 09:57:33;;;;;;;0.60;0.60;;;10.10;99.90;;;;;;4994579;28;20174;-59
2023/11/14 09:59:59;;;;;;;0.50;0.50;;;10.20;99.90;;;;;;4994619;28;20331;-59
2023/11/14 10:02:26;;;;;;;0.60;0.57;;;10.00;99.90;;;;;;4994278;28;20577;-60
2023/11/14 10:04:51;;;;;;;2.35;0.60;;;10.10;99.90;;;;;;4994437;28;20190;-58
2023/11/14 10:07:20;;;;;;;0.33;0.33;;;10.10;99.90;;;;;;4994339;28;20176;-59
2023/11/14 10:09:47;;;;;;;3.05;0.75;;;10.00;99.90;;;;;;4994110;28;20187;-58
2023/11/14 10:12:31;;;;;;;0.40;0.40;;;10.10;99.90;;;;;;5009076;28;20235;-58
2023/11/14 10:14:57;;;;;;;0.40;0.40;;;10.00;99.90;;;;;;4994360;28;20322;-59
2023/11/14 10:17:26;;;;;;;0.30;0.30;;;9.90;99.90;;;;;;4994218;28;20176;-59
2023/11/14 10:19:59;;;;;;;0.40;0.40;;;9.90;99.90;;;;;;4994124;28;20720;-58
2023/11/14 10:22:27;;;;;;;0.70;0.60;;;9.90;99.90;;;;;;4993918;28;20172;-59
2023/11/14 10:24:53;;;;;;;0.97;0.97;;;10.00;99.90;;;;;;4994125;28;20254;-59
2023/11/14 10:27:29;;;;;;;2.10;0.87;;;10.00;99.90;;;;;;4993934;28;20954;-58
2023/11/14 10:29:55;;;;;;;0.45;0.45;;;10.00;99.90;;;;;;4992960;28;20431;-59
2023/11/14 10:32:24;;;;;;;0.82;0.77;;;10.10;99.90;;;;;;4993375;28;20256;-59
2023/11/14 10:34:53;;;;;;;2.63;0.50;;;10.00;99.90;;;;;;4993899;28;20168;-59
2023/11/14 10:37:33;;;;;;;0.30;0.30;;;9.90;99.90;;;;;;4993858;28;20913;-59
2023/11/14 10:40:01;;;;;;;0.40;0.40;;;10.00;99.90;;;;;;4993684;28;20917;-59
2023/11/14 10:42:27;;;;;;;0.50;0.50;;;10.00;99.90;;;;;;4993384;28;20302;-59
2023/11/14 10:45:01;;;;;;;0.40;0.40;;;10.10;99.90;;;;;;4993655;28;20177;-59
2023/11/14 10:47:40;;;;;;;0.50;0.50;;;10.10;99.90;;;;;;4993720;28;20679;-59
2023/11/14 10:50:23;;;;;;;2.05;1.15;;;10.10;99.90;;;;;;4993511;28;20228;-57
2023/11/14 10:52:51;;;;;;;1.08;0.60;;;10.20;99.90;;;;;;4991184;28;20619;-57
2023/11/14 10:55:17;;;;;;;0.70;0.50;;;10.30;99.90;;;;;;4987777;28;20234;-58
2023/11/14 10:57:43;;;;;;;0.50;0.50;;;10.30;99.90;;;;;;4993396;28;20403;-58
2023/11/14 11:00:11;;;;;;;2.53;0.50;;;10.40;99.90;;;;;;4993096;28;20988;-57
2023/11/14 11:02:39;;;;;;;0.50;0.50;;;10.40;99.90;;;;;;4991761;28;20549;-57
2023/11/14 11:05:05;;;;;;;1.00;0.40;;;10.50;99.90;;;;;;4991697;28;20414;-57
2023/11/14 11:07:31;;;;;;;1.03;0.67;;;10.50;99.90;;;;;;4992085;28;20408;-57
2023/11/14 11:09:58;;;;;;;0.70;0.50;;;10.50;99.90;;;;;;4993095;28;20462;-57
2023/11/14 11:12:27;;;;;;;0.50;0.50;;;10.50;99.90;;;;;;4992929;28;20483;-58
2023/11/14 11:14:53;;;;;;;0.40;0.40;;;10.40;99.90;;;;;;4993170;28;20403;-57
2023/11/14 11:18:01;;;;;;;0.40;0.40;;;10.40;99.90;;;;;;4993080;28;20794;-58
2023/11/14 11:20:30;;;;;;;0.37;0.37;;;10.30;99.90;;;;;;4932629;29;20532;-57
2023/11/14 11:23:08;;;;;;;0.30;0.30;;;10.30;99.90;;;;;;4984223;28;20430;-58
2023/11/14 11:25:37;;;;;;;1.70;1.03;;;10.20;99.90;;;;;;4992928;28;20426;-58
2023/11/14 11:28:27;;;;;;;1.48;1.40;;;10.20;99.90;;;;;;4992872;28;20788;-57
2023/11/14 11:31:05;;;;;;;0.50;0.40;;;10.20;99.90;;;;;;4975257;28;20283;-58
2023/11/14 11:33:39;;;;;;;0.40;0.40;;;10.10;99.90;;;;;;4992688;28;20479;-57
2023/11/14 11:36:29;;;;;;;0.30;0.30;;;10.10;99.90;;;;;;4992764;28;20410;-57
2023/11/14 11:38:58;;;;;;;0.40;0.40;;;10.20;99.90;;;;;;4993076;28;20502;-58
2023/11/14 11:41:26;;;;;;;3.22;0.98;;;10.30;99.90;;;;;;4992778;28;20200;-58
2023/11/14 11:44:11;;;;;;;0.68;0.55;;;10.40;99.90;;;;;;4992652;28;20176;-58
2023/11/14 11:46:42;;;;;;;1.37;0.53;;;10.50;99.90;;;;;;4992755;28;20196;-57
2023/11/14 11:49:22;;;;;;;0.30;0.30;;;10.60;99.90;;;;;;4975568;28;20463;-58
2023/11/14 11:51:48;;;;;;;0.40;0.40;;;10.60;99.90;;;;;;4992598;28;20435;-58
2023/11/14 11:54:29;;;;;;;0.87;0.40;;;10.60;99.90;;;;;;4990391;28;20541;-58
2023/11/14 11:57:09;;;;;;;0.60;0.50;;;10.60;99.90;;;;;;4973048;28;20910;-58
2023/11/14 11:59:43;;;;;;;0.50;0.50;;;10.70;99.90;;;;;;4972962;28;20436;-57
2023/11/14 12:02:13;;;;;;;0.67;0.50;;;10.70;99.90;;;;;;4972598;28;20416;-58
2023/11/14 12:04:39;;;;;;;0.30;0.30;;;10.60;99.90;;;;;;4973101;28;20420;-58
2023/11/14 12:07:06;;;;;;;0.53;0.40;;;10.60;99.90;;;;;;4972943;28;20428;-58
2023/11/14 12:09:32;;;;;;;0.60;0.50;;;10.60;99.90;;;;;;4972709;28;20419;-59
2023/11/14 12:11:58;;;;;;;0.63;0.63;;;10.50;99.90;;;;;;4972682;28;20537;-58
2023/11/14 12:14:25;;;;;;;1.33;0.67;;;10.50;99.90;;;;;;4971741;28;20173;-58
2023/11/14 12:16:51;;;;;;;1.23;0.67;;;10.40;99.90;;;;;;4971821;28;20416;-60
2023/11/14 12:19:17;;;;;;;0.50;0.50;;;10.30;99.90;;;;;;4972882;28;20405;-57
2023/11/14 12:21:47;;;;;;;0.60;0.40;;;10.30;99.90;;;;;;4972651;28;20275;-59
2023/11/14 12:24:14;;;;;;;0.60;0.60;;;10.30;99.90;;;;;;4971414;28;20280;-59
2023/11/14 12:26:39;;;;;;;0.75;0.75;;;10.30;99.90;;;;;;4972671;28;20412;-58
2023/11/14 12:29:10;;;;;;;0.60;0.60;;;10.30;99.90;;;;;;4972631;28;20224;-59
2023/11/14 12:31:36;;;;;;;1.13;1.03;;;10.30;99.90;;;;;;4972594;28;20196;-58
2023/11/14 12:34:04;;;;;;;0.30;0.30;;;10.30;99.90;;;;;;4972384;28;20456;-58
2023/11/14 12:36:31;;;;;;;1.25;0.80;;;10.30;99.90;;;;;;4972492;28;20408;-58
2023/11/14 12:39:12;;;;;;;0.50;0.50;;;10.20;99.90;;;;;;4972504;28;20192;-59
2023/11/14 12:41:43;;;;;;;0.70;0.70;;;10.20;99.90;;;;;;4971368;28;20224;-58
2023/11/14 12:44:09;;;;;;;0.40;0.40;;;10.00;99.90;;;;;;4972351;28;20415;-58
2023/11/14 12:46:36;;;;;;;0.80;0.57;;;10.10;99.90;;;;;;4972625;28;20408;-59
2023/11/14 12:49:14;;;;;;;1.00;1.00;;;10.20;99.90;;;;;;4972505;28;20466;-58
2023/11/14 12:51:41;;;;;;;0.50;0.50;;;10.00;99.90;;;;;;4972583;28;20806;-58